Time;durP1;ratioP1;P1;durP2;ratioP2;P2;SDS_P1;SDS_P2;PMS_P1;PMS_P2;Temp;Humidity;BMP_temperature;BMP_pressure;BME280_temperature;BME280_humidity;BME280_pressure;Samples;Min_cycle;Max_cycle;Signal;HPM_P1;HPM_P2
2021/12/01 00:00:19;;;;;;;12.63;11.63;;;5.20;99.90;;;;;;6217394;23;20245;-79
2021/12/01 00:02:52;;;;;;;12.23;11.53;;;5.20;99.90;;;;;;6217783;23;20654;-79
2021/12/01 00:05:20;;;;;;;12.13;11.43;;;5.20;99.90;;;;;;6215919;23;20188;-80
2021/12/01 00:07:47;;;;;;;12.10;11.40;;;5.20;99.90;;;;;;6215550;23;20171;-80
2021/12/01 00:10:14;;;;;;;12.50;11.70;;;5.20;99.90;;;;;;6215590;23;20245;-80
2021/12/01 00:12:41;;;;;;;12.00;11.40;;;5.20;99.90;;;;;;6215863;23;20195;-78
2021/12/01 00:15:08;;;;;;;11.87;11.27;;;5.20;99.90;;;;;;6190785;23;20175;-79
2021/12/01 00:17:36;;;;;;;12.03;11.33;;;5.20;99.90;;;;;;6217417;23;20225;-79
2021/12/01 00:20:04;;;;;;;12.00;11.30;;;5.20;99.90;;;;;;6190601;23;20230;-79
2021/12/01 00:22:31;;;;;;;11.97;11.27;;;5.20;99.90;;;;;;6217346;23;20867;-80
2021/12/01 00:24:58;;;;;;;12.30;11.60;;;5.30;99.90;;;;;;6217274;23;20194;-79
2021/12/01 00:27:24;;;;;;;12.20;11.50;;;5.30;99.90;;;;;;6215692;23;20716;-80
2021/12/01 00:29:51;;;;;;;12.13;11.43;;;5.30;99.90;;;;;;6217580;23;20205;-79
2021/12/01 00:32:19;;;;;;;12.10;11.50;;;5.30;99.90;;;;;;6216309;23;20739;-80
2021/12/01 00:34:47;;;;;;;11.93;11.33;;;5.30;99.90;;;;;;6216966;23;20227;-79
2021/12/01 00:37:14;;;;;;;11.80;11.20;;;5.30;99.90;;;;;;6215462;23;20172;-80
2021/12/01 00:39:41;;;;;;;12.20;11.50;;;5.30;99.90;;;;;;6215524;23;20234;-80
2021/12/01 00:42:09;;;;;;;12.10;11.40;;;5.30;99.90;;;;;;6216453;23;20550;-80
2021/12/01 00:44:36;;;;;;;11.77;11.17;;;5.30;99.90;;;;;;6216831;23;20168;-80
2021/12/01 00:47:06;;;;;;;12.27;11.67;;;5.30;99.90;;;;;;6216624;23;20183;-78
2021/12/01 00:49:34;;;;;;;11.90;11.30;;;5.30;99.90;;;;;;6217465;23;20175;-79
2021/12/01 00:52:04;;;;;;;12.17;11.57;;;5.30;99.90;;;;;;6217035;23;20543;-80
2021/12/01 00:54:30;;;;;;;12.63;11.93;;;5.30;99.90;;;;;;6190115;23;20910;-80
2021/12/01 00:56:57;;;;;;;12.63;11.93;;;5.40;99.90;;;;;;6190051;23;20159;-80
2021/12/01 00:59:24;;;;;;;12.30;11.60;;;5.30;99.90;;;;;;6216851;23;20164;-80
2021/12/01 01:01:52;;;;;;;12.10;11.50;;;5.40;99.90;;;;;;6189752;23;20217;-80
2021/12/01 01:04:19;;;;;;;12.20;11.50;;;5.40;99.90;;;;;;6190144;23;20626;-80
2021/12/01 01:06:46;;;;;;;12.20;11.60;;;5.30;99.90;;;;;;6216640;23;20183;-79
2021/12/01 01:09:14;;;;;;;12.30;11.60;;;5.40;99.90;;;;;;6190615;23;20229;-80
2021/12/01 01:17:18;;;;;;;12.57;11.87;;;5.40;99.90;;;;;;6189695;23;20169;-79
2021/12/01 01:19:44;;;;;;;12.47;11.77;;;5.40;99.90;;;;;;6218208;23;20155;-80
2021/12/01 01:22:11;;;;;;;12.47;11.77;;;5.40;99.90;;;;;;6189940;23;20195;-79
2021/12/01 01:24:40;;;;;;;12.13;11.43;;;5.40;99.90;;;;;;6216996;23;20163;-79
2021/12/01 01:27:07;;;;;;;12.57;11.87;;;5.40;99.90;;;;;;6189338;23;20246;-79
2021/12/01 01:29:34;;;;;;;12.20;11.50;;;5.40;99.90;;;;;;6189710;23;20175;-80
2021/12/01 01:32:01;;;;;;;11.83;11.23;;;5.50;99.90;;;;;;6216348;23;20168;-80
2021/12/01 01:34:28;;;;;;;11.63;11.03;;;5.50;99.90;;;;;;6216673;23;20245;-80
2021/12/01 01:36:55;;;;;;;11.70;11.07;;;5.50;99.90;;;;;;6189200;23;20580;-79
2021/12/01 01:39:23;;;;;;;11.53;10.93;;;5.50;99.90;;;;;;6190151;23;20234;-79
2021/12/01 01:41:54;;;;;;;11.50;10.90;;;5.50;99.90;;;;;;6216680;23;20222;-80
2021/12/01 01:44:21;;;;;;;11.33;10.73;;;5.50;99.90;;;;;;6189407;23;20168;-80
2021/12/01 01:46:48;;;;;;;11.80;11.20;;;5.50;99.90;;;;;;6189027;23;20199;-79
2021/12/01 01:49:18;;;;;;;11.80;11.20;;;5.50;99.90;;;;;;6189718;23;20176;-79
2021/12/01 01:51:45;;;;;;;11.60;11.00;;;5.50;99.90;;;;;;6216449;23;20190;-80
2021/12/01 01:54:12;;;;;;;12.00;11.30;;;5.50;99.90;;;;;;6216738;23;20191;-80
2021/12/01 01:56:40;;;;;;;12.10;11.50;;;5.50;99.90;;;;;;6216344;23;20156;-79
2021/12/01 01:59:08;;;;;;;11.93;11.33;;;5.50;99.90;;;;;;6216443;23;20222;-80
2021/12/01 02:01:45;;;;;;;11.80;11.20;;;5.50;99.90;;;;;;6215345;23;20226;-79
2021/12/01 02:04:15;;;;;;;11.70;11.10;;;5.50;99.90;;;;;;6189463;23;20211;-79
2021/12/01 02:06:42;;;;;;;11.80;11.20;;;5.50;99.90;;;;;;6189546;23;20187;-79
2021/12/01 02:09:09;;;;;;;11.57;10.87;;;5.50;99.90;;;;;;6216111;23;20164;-79
2021/12/01 02:11:36;;;;;;;11.60;11.00;;;5.50;99.90;;;;;;6216505;23;20163;-80
2021/12/01 02:14:04;;;;;;;11.40;10.80;;;5.50;99.90;;;;;;6214018;23;20206;-79
2021/12/01 02:16:32;;;;;;;11.80;11.20;;;5.50;99.90;;;;;;6189829;23;20171;-79
2021/12/01 02:18:59;;;;;;;11.47;10.87;;;5.50;99.90;;;;;;6189776;23;20172;-80
2021/12/01 02:21:29;;;;;;;11.70;11.10;;;5.50;99.90;;;;;;6216385;23;20237;-80
2021/12/01 02:23:58;;;;;;;11.80;11.20;;;5.50;99.90;;;;;;6216313;23;20187;-80
2021/12/01 02:26:26;;;;;;;11.60;11.00;;;5.50;99.90;;;;;;6189966;23;20735;-80
2021/12/01 02:28:57;;;;;;;11.53;10.93;;;5.50;99.90;;;;;;6216663;23;20560;-79
2021/12/01 02:31:28;;;;;;;11.67;11.07;;;5.50;99.90;;;;;;6216245;23;20611;-79
2021/12/01 02:33:56;;;;;;;11.60;11.00;;;5.50;99.90;;;;;;6216059;23;20187;-80
2021/12/01 02:36:23;;;;;;;11.23;10.63;;;5.50;99.90;;;;;;6189240;23;20574;-80
2021/12/01 02:38:51;;;;;;;11.33;10.73;;;5.50;99.90;;;;;;6216219;23;20179;-79
2021/12/01 02:41:28;;;;;;;11.60;11.00;;;5.50;99.90;;;;;;6214487;23;20451;-80
2021/12/01 02:43:55;;;;;;;11.80;11.20;;;5.50;99.90;;;;;;6216659;23;20584;-80
2021/12/01 02:46:22;;;;;;;11.60;11.00;;;5.60;99.90;;;;;;6216163;23;20190;-80
2021/12/01 02:48:49;;;;;;;11.70;11.10;;;5.60;99.90;;;;;;6216739;23;20168;-79
2021/12/01 02:51:18;;;;;;;11.70;11.00;;;5.60;99.90;;;;;;6216462;23;20171;-80
2021/12/01 02:53:44;;;;;;;11.40;10.80;;;5.60;99.90;;;;;;6216278;23;20184;-80
2021/12/01 02:56:13;;;;;;;11.50;10.90;;;5.60;99.90;;;;;;6215740;23;20163;-80
2021/12/01 02:58:41;;;;;;;11.43;10.83;;;5.60;99.90;;;;;;6215444;23;20610;-80
2021/12/01 03:01:10;;;;;;;11.40;10.80;;;5.60;99.90;;;;;;6216512;23;20259;-79
2021/12/01 03:03:39;;;;;;;11.47;10.87;;;5.60;99.90;;;;;;6190956;23;20191;-80
2021/12/01 03:06:07;;;;;;;11.10;10.50;;;5.60;99.90;;;;;;6215892;23;20191;-80
2021/12/01 03:08:35;;;;;;;11.23;10.63;;;5.60;99.90;;;;;;6217262;23;20172;-80
2021/12/01 03:11:03;;;;;;;11.40;10.80;;;5.60;99.90;;;;;;6217814;23;20171;-80
2021/12/01 03:13:31;;;;;;;11.70;10.90;;;5.60;99.90;;;;;;6217590;23;20242;-80
2021/12/01 03:15:58;;;;;;;11.40;10.80;;;5.60;99.90;;;;;;6216320;23;20179;-79
2021/12/01 03:18:26;;;;;;;11.53;10.83;;;5.60;99.90;;;;;;6190725;23;20175;-80
2021/12/01 03:20:54;;;;;;;11.30;10.70;;;5.70;99.90;;;;;;6217893;23;20171;-80
2021/12/01 03:23:22;;;;;;;11.40;10.80;;;5.70;99.90;;;;;;6216187;23;20245;-79
2021/12/01 03:25:49;;;;;;;11.40;10.80;;;5.70;99.90;;;;;;6217701;23;20167;-80
2021/12/01 03:28:16;;;;;;;11.40;10.80;;;5.70;99.90;;;;;;6217258;23;20168;-79
2021/12/01 03:30:44;;;;;;;11.43;10.83;;;5.70;99.90;;;;;;6217696;23;20175;-80
2021/12/01 03:33:14;;;;;;;11.53;10.93;;;5.80;99.90;;;;;;6190848;23;20257;-80
2021/12/01 03:35:45;;;;;;;11.10;10.50;;;5.80;99.90;;;;;;6191409;23;20190;-80
2021/12/01 03:38:12;;;;;;;11.30;10.70;;;5.80;99.90;;;;;;6215443;23;20602;-80
2021/12/01 03:40:41;;;;;;;11.33;10.67;;;5.80;99.90;;;;;;6220951;23;20175;-79
2021/12/01 03:43:07;;;;;;;11.50;10.80;;;5.80;99.90;;;;;;6217666;23;20249;-82
2021/12/01 03:45:56;;;;;;;11.20;10.60;;;5.80;99.90;;;;;;6219796;23;20176;-82
2021/12/01 03:48:23;;;;;;;11.63;11.03;;;5.80;99.90;;;;;;6217301;23;20172;-81
2021/12/01 03:50:52;;;;;;;11.43;10.83;;;5.90;99.90;;;;;;6218829;23;20193;-78
2021/12/01 03:53:21;;;;;;;11.93;11.33;;;5.90;99.90;;;;;;6191896;23;20200;-82
2021/12/01 03:55:48;;;;;;;11.80;11.20;;;5.90;99.90;;;;;;6218477;23;20179;-82
2021/12/01 03:58:15;;;;;;;11.73;11.13;;;5.90;99.90;;;;;;6191858;23;20175;-82
2021/12/01 04:00:42;;;;;;;11.80;11.20;;;5.90;99.90;;;;;;6192184;23;20194;-80
2021/12/01 04:03:10;;;;;;;11.57;10.97;;;6.00;99.90;;;;;;6216643;23;20764;-82
2021/12/01 04:05:37;;;;;;;11.30;10.70;;;5.90;99.90;;;;;;6217447;23;20176;-81
2021/12/01 04:08:05;;;;;;;11.90;11.30;;;5.90;99.90;;;;;;6189283;23;20196;-83
2021/12/01 04:10:32;;;;;;;11.87;11.27;;;5.90;99.90;;;;;;6217833;23;20171;-79
2021/12/01 04:12:59;;;;;;;11.70;11.10;;;6.00;99.90;;;;;;6219341;23;20241;-78
2021/12/01 04:15:26;;;;;;;12.10;11.50;;;6.00;99.90;;;;;;6219094;23;20469;-78
2021/12/01 04:17:53;;;;;;;11.90;11.30;;;6.00;99.90;;;;;;6191400;23;20168;-78
2021/12/01 04:20:21;;;;;;;11.90;11.30;;;6.00;99.90;;;;;;6217359;23;20163;-79
2021/12/01 04:22:50;;;;;;;12.00;11.40;;;6.00;99.90;;;;;;6215411;23;20196;-79
2021/12/01 04:25:17;;;;;;;13.10;12.30;;;6.10;99.90;;;;;;6213482;23;20172;-78
2021/12/01 04:27:44;;;;;;;12.63;11.93;;;6.00;99.90;;;;;;6219215;23;20231;-79
2021/12/01 04:30:14;;;;;;;13.47;12.77;;;6.10;99.90;;;;;;6191870;23;20203;-79
2021/12/01 04:32:41;;;;;;;13.30;12.60;;;6.10;99.90;;;;;;6219053;23;20184;-78
2021/12/01 04:35:09;;;;;;;13.10;12.40;;;6.10;99.90;;;;;;6218969;23;20214;-79
2021/12/01 04:37:40;;;;;;;12.70;12.00;;;6.10;99.90;;;;;;6219026;23;20171;-79
2021/12/01 04:40:08;;;;;;;12.30;11.70;;;6.10;99.90;;;;;;6219036;23;20157;-78
2021/12/01 04:42:35;;;;;;;12.43;11.83;;;6.10;99.90;;;;;;6188495;23;20195;-79
2021/12/01 04:45:02;;;;;;;12.30;11.70;;;6.10;99.90;;;;;;6216538;23;20189;-79
2021/12/01 04:47:32;;;;;;;12.47;11.87;;;6.10;99.90;;;;;;6218763;23;20728;-79
2021/12/01 04:49:59;;;;;;;12.53;11.93;;;6.10;99.90;;;;;;6217371;23;20176;-79
2021/12/01 04:52:25;;;;;;;12.53;11.93;;;6.10;99.90;;;;;;6217518;23;20246;-79
2021/12/01 04:54:54;;;;;;;12.63;11.93;;;6.10;99.90;;;;;;6219578;23;20202;-79
2021/12/01 04:57:20;;;;;;;12.60;12.00;;;6.10;99.90;;;;;;6219028;23;20167;-78
2021/12/01 04:59:48;;;;;;;12.87;12.10;;;6.10;99.90;;;;;;6219506;23;20167;-78
2021/12/01 05:02:15;;;;;;;13.10;12.40;;;6.20;99.90;;;;;;6217522;23;20195;-78
2021/12/01 05:04:42;;;;;;;13.03;12.33;;;6.20;99.90;;;;;;6217742;23;20179;-78
2021/12/01 05:07:09;;;;;;;12.73;12.10;;;6.20;99.90;;;;;;6218416;23;20214;-79
2021/12/01 05:09:36;;;;;;;13.20;12.50;;;6.20;99.90;;;;;;6192830;23;20176;-79
2021/12/01 05:12:07;;;;;;;13.03;12.33;;;6.20;99.90;;;;;;6219344;23;20172;-79
2021/12/01 05:14:34;;;;;;;12.97;12.27;;;6.20;99.90;;;;;;6191947;23;20243;-79
2021/12/01 05:17:01;;;;;;;12.53;11.93;;;6.20;99.90;;;;;;6218152;23;20160;-79
2021/12/01 05:19:28;;;;;;;12.67;12.03;;;6.20;99.90;;;;;;6215200;23;20168;-80
2021/12/01 05:21:55;;;;;;;12.80;12.10;;;6.20;99.90;;;;;;6218768;23;20167;-78
2021/12/01 05:24:22;;;;;;;12.83;12.13;;;6.30;99.90;;;;;;6191449;23;20196;-79
2021/12/01 05:26:49;;;;;;;12.97;12.27;;;6.30;99.90;;;;;;6218094;23;20546;-79
2021/12/01 05:29:17;;;;;;;12.63;12.03;;;6.30;99.90;;;;;;6216996;23;20176;-78
2021/12/01 05:31:44;;;;;;;12.63;12.00;;;6.30;99.90;;;;;;6218823;23;20172;-79
2021/12/01 05:34:11;;;;;;;12.47;11.77;;;6.30;99.90;;;;;;6217663;23;20192;-79
2021/12/01 05:36:38;;;;;;;12.40;11.80;;;6.40;99.90;;;;;;6217815;23;20222;-78
2021/12/01 05:39:04;;;;;;;12.33;11.63;;;6.40;99.90;;;;;;6216315;23;20179;-78
2021/12/01 05:41:32;;;;;;;12.37;11.77;;;6.40;99.90;;;;;;6217833;23;20169;-79
2021/12/01 05:43:58;;;;;;;12.50;11.80;;;6.50;99.90;;;;;;6218028;23;20191;-79
2021/12/01 05:46:27;;;;;;;12.03;11.43;;;6.50;99.90;;;;;;6216792;23;20176;-79
2021/12/01 05:48:54;;;;;;;12.67;12.07;;;6.50;99.90;;;;;;6216886;23;20219;-79
2021/12/01 05:51:21;;;;;;;13.30;12.60;;;6.50;99.90;;;;;;6216760;23;20176;-79
2021/12/01 05:53:49;;;;;;;12.43;11.83;;;6.50;99.90;;;;;;6218748;23;20188;-79
2021/12/01 05:56:16;;;;;;;13.10;12.40;;;6.50;99.90;;;;;;6216525;23;20180;-79
2021/12/01 05:58:43;;;;;;;12.87;12.27;;;6.50;99.90;;;;;;6191914;23;20195;-79
2021/12/01 06:01:10;;;;;;;12.43;11.80;;;6.50;99.90;;;;;;6219045;23;20226;-78
2021/12/01 06:03:39;;;;;;;12.40;11.80;;;6.50;99.90;;;;;;6218148;23;20254;-78
2021/12/01 06:06:06;;;;;;;12.53;11.83;;;6.50;99.90;;;;;;6218747;23;20299;-79
2021/12/01 06:08:33;;;;;;;12.30;11.70;;;6.60;99.90;;;;;;6218378;23;20177;-80
2021/12/01 06:11:00;;;;;;;12.40;11.63;;;6.60;99.90;;;;;;6190936;23;20196;-79
2021/12/01 06:13:27;;;;;;;12.97;12.27;;;6.60;99.90;;;;;;6218289;23;20192;-78
2021/12/01 06:15:53;;;;;;;12.03;11.30;;;6.60;99.90;;;;;;6217580;23;20214;-78
2021/12/01 06:18:20;;;;;;;12.50;11.70;;;6.60;99.90;;;;;;6215420;23;20171;-78
2021/12/01 06:20:49;;;;;;;12.37;11.67;;;6.60;99.90;;;;;;6217139;23;20550;-79
2021/12/01 06:23:16;;;;;;;12.10;11.50;;;6.60;99.90;;;;;;6190688;23;20274;-78
2021/12/01 06:25:43;;;;;;;12.87;12.17;;;6.60;99.90;;;;;;6216811;23;20181;-79
2021/12/01 06:28:10;;;;;;;12.70;12.00;;;6.60;99.90;;;;;;6218534;23;20588;-79
2021/12/01 06:30:38;;;;;;;12.90;12.20;;;6.60;99.90;;;;;;6216366;23;20176;-78
2021/12/01 06:33:05;;;;;;;12.27;11.67;;;6.60;99.90;;;;;;6191196;23;20200;-79
2021/12/01 06:35:33;;;;;;;12.67;11.97;;;6.60;99.90;;;;;;6193051;23;20179;-79
2021/12/01 06:38:03;;;;;;;12.30;11.70;;;6.60;99.90;;;;;;6219938;23;20164;-79
2021/12/01 06:40:30;;;;;;;11.97;11.37;;;6.60;99.90;;;;;;6218024;23;20172;-79
2021/12/01 06:42:58;;;;;;;12.00;11.40;;;6.60;99.90;;;;;;6219596;23;20244;-80
2021/12/01 06:45:25;;;;;;;12.10;11.50;;;6.60;99.90;;;;;;6219866;23;20243;-80
2021/12/01 06:47:51;;;;;;;12.87;12.17;;;6.60;99.90;;;;;;6218968;23;20184;-79
2021/12/01 06:50:18;;;;;;;12.57;11.77;;;6.60;99.90;;;;;;6219489;23;20165;-78
2021/12/01 06:52:46;;;;;;;12.10;11.50;;;6.60;99.90;;;;;;6219910;23;20662;-78
2021/12/01 06:55:14;;;;;;;12.30;11.60;;;6.60;99.90;;;;;;6219850;23;20194;-79
2021/12/01 06:57:41;;;;;;;12.70;11.90;;;6.60;99.90;;;;;;6219834;23;20164;-79
2021/12/01 07:00:12;;;;;;;12.57;11.77;;;6.60;99.90;;;;;;6219204;23;20164;-78
2021/12/01 07:02:39;;;;;;;12.37;11.67;;;6.70;99.90;;;;;;6220262;23;20214;-79
2021/12/01 07:05:08;;;;;;;12.40;11.80;;;6.70;99.90;;;;;;6220015;23;20171;-79
2021/12/01 07:07:35;;;;;;;12.20;11.50;;;6.70;99.90;;;;;;6219182;23;20181;-79
2021/12/01 07:10:02;;;;;;;12.60;11.90;;;6.80;99.90;;;;;;6218562;23;20631;-79
2021/12/01 07:12:30;;;;;;;12.10;11.50;;;6.80;99.90;;;;;;6220206;23;20188;-79
2021/12/01 07:14:57;;;;;;;12.03;11.43;;;6.80;99.90;;;;;;6219976;23;20169;-79
2021/12/01 07:17:24;;;;;;;11.73;11.13;;;6.90;99.90;;;;;;6219556;23;20184;-79
2021/12/01 07:19:51;;;;;;;13.03;11.97;;;6.90;99.90;;;;;;6219049;23;20172;-79
2021/12/01 07:22:18;;;;;;;11.63;11.03;;;6.90;99.90;;;;;;6217508;23;20195;-78
2021/12/01 07:24:45;;;;;;;12.10;11.40;;;6.90;99.90;;;;;;6219246;23;20211;-79
2021/12/01 07:27:12;;;;;;;12.03;11.33;;;7.00;99.90;;;;;;6192607;23;20173;-79
2021/12/01 07:29:42;;;;;;;11.90;11.30;;;7.00;99.90;;;;;;6219404;23;20231;-79
2021/12/01 07:32:10;;;;;;;11.97;11.37;;;7.00;99.90;;;;;;6217455;23;20176;-78
2021/12/01 07:34:42;;;;;;;11.73;11.10;;;7.00;99.90;;;;;;6218527;23;20598;-79
2021/12/01 07:37:08;;;;;;;13.00;12.30;;;7.10;99.90;;;;;;6218742;23;20203;-79
2021/12/01 07:39:35;;;;;;;12.37;11.67;;;7.10;99.90;;;;;;6219276;23;20172;-78
2021/12/01 07:42:02;;;;;;;11.53;10.93;;;7.20;99.90;;;;;;6221389;23;20215;-79
2021/12/01 07:44:30;;;;;;;10.40;9.83;;;7.20;99.90;;;;;;6218120;23;20168;-79
2021/12/01 07:46:58;;;;;;;10.60;10.00;;;7.20;99.90;;;;;;6218489;23;20541;-79
2021/12/01 07:49:25;;;;;;;11.30;10.70;;;7.30;99.90;;;;;;6218826;23;20179;-79
2021/12/01 07:51:53;;;;;;;10.63;10.03;;;7.30;99.90;;;;;;6218657;23;20169;-79
2021/12/01 07:54:20;;;;;;;10.53;9.93;;;7.40;99.90;;;;;;6217855;23;20176;-79
2021/12/01 07:56:47;;;;;;;11.00;10.40;;;7.40;99.90;;;;;;6192068;23;20165;-79
2021/12/01 07:59:15;;;;;;;10.97;10.37;;;7.40;99.90;;;;;;6218312;23;20697;-79
2021/12/01 08:01:43;;;;;;;10.53;10.03;;;7.60;99.90;;;;;;6218053;23;20179;-79
2021/12/01 08:04:12;;;;;;;11.20;10.60;;;7.70;99.90;;;;;;6192578;23;20253;-79
2021/12/01 08:06:40;;;;;;;6.07;5.70;;;8.10;99.90;;;;;;6219733;23;20174;-79
2021/12/01 08:09:08;;;;;;;10.07;9.27;;;8.50;99.90;;;;;;6218801;23;20187;-78
2021/12/01 08:11:35;;;;;;;11.50;10.90;;;9.10;99.90;;;;;;6220183;23;20169;-78
2021/12/01 08:14:02;;;;;;;11.70;11.10;;;9.60;99.90;;;;;;6220531;23;20188;-79
2021/12/01 08:16:29;;;;;;;11.80;11.20;;;10.10;99.90;;;;;;6218956;23;20221;-78
2021/12/01 08:18:56;;;;;;;12.37;11.77;;;10.60;99.90;;;;;;6220845;23;20171;-78
2021/12/01 08:21:25;;;;;;;2.70;2.60;;;11.00;99.90;;;;;;6220962;23;20192;-79
2021/12/01 08:23:52;;;;;;;3.53;3.33;;;11.30;99.90;;;;;;6218543;23;20196;-79
2021/12/01 08:26:19;;;;;;;2.73;2.53;;;11.60;99.90;;;;;;6219592;23;20163;-79
2021/12/01 08:28:47;;;;;;;7.87;7.47;;;11.70;99.90;;;;;;6218853;23;20196;-79
2021/12/01 08:31:14;;;;;;;8.77;8.27;;;11.80;99.90;;;;;;6220303;23;20165;-79
2021/12/01 08:33:41;;;;;;;2.80;2.60;;;11.80;99.90;;;;;;6219858;23;20185;-79
2021/12/01 08:36:09;;;;;;;2.50;2.40;;;11.90;99.90;;;;;;6217916;23;20227;-79
2021/12/01 08:38:38;;;;;;;9.63;9.13;;;11.90;99.90;;;;;;6218805;23;20201;-79
2021/12/01 08:41:05;;;;;;;9.97;9.47;;;11.80;99.90;;;;;;6218790;23;20169;-79
2021/12/01 08:43:33;;;;;;;10.73;10.13;;;11.50;99.90;;;;;;6219155;23;20256;-79
2021/12/01 08:46:00;;;;;;;13.07;12.37;;;11.10;99.90;;;;;;6219007;23;20241;-79
2021/12/01 08:48:27;;;;;;;10.33;9.80;;;10.80;99.90;;;;;;6218836;23;20531;-79
2021/12/01 08:50:56;;;;;;;2.60;2.50;;;10.60;99.90;;;;;;6219121;23;20626;-79
2021/12/01 08:53:23;;;;;;;8.53;8.10;;;10.70;99.90;;;;;;6216891;23;20226;-79
2021/12/01 08:55:51;;;;;;;7.40;7.00;;;10.50;99.90;;;;;;6218074;23;20171;-78
2021/12/01 08:58:19;;;;;;;7.40;7.00;;;10.30;99.90;;;;;;6219040;23;20155;-79
2021/12/01 09:00:48;;;;;;;5.47;5.17;;;10.30;99.90;;;;;;6218903;23;20250;-79
2021/12/01 09:03:17;;;;;;;7.90;7.50;;;10.20;99.90;;;;;;6192192;23;20191;-78
2021/12/01 09:05:46;;;;;;;4.13;3.93;;;10.30;99.90;;;;;;6216682;23;20685;-79
2021/12/01 09:08:13;;;;;;;6.60;6.27;;;10.40;99.90;;;;;;6218593;23;20186;-78
2021/12/01 09:10:41;;;;;;;3.37;3.17;;;10.50;99.90;;;;;;6217517;23;20170;-80
2021/12/01 09:13:09;;;;;;;10.17;9.67;;;10.40;99.90;;;;;;6219015;23;20183;-80
2021/12/01 09:15:38;;;;;;;11.13;10.53;;;10.30;99.90;;;;;;6216884;23;20493;-80
2021/12/01 09:18:05;;;;;;;6.60;6.30;;;10.30;99.90;;;;;;6218387;23;20187;-80
2021/12/01 09:20:32;;;;;;;2.43;2.30;;;10.20;99.90;;;;;;6216822;23;20171;-78
2021/12/01 09:23:00;;;;;;;2.40;2.30;;;10.10;99.90;;;;;;6217925;23;20622;-79
2021/12/01 09:25:28;;;;;;;2.40;2.30;;;10.20;99.90;;;;;;6191679;23;20179;-79
2021/12/01 09:27:55;;;;;;;2.50;2.40;;;10.10;99.90;;;;;;6217769;23;20164;-78
2021/12/01 09:30:23;;;;;;;2.50;2.40;;;10.30;99.90;;;;;;6217932;23;20195;-79
2021/12/01 09:32:50;;;;;;;2.53;2.33;;;10.40;99.90;;;;;;6218182;23;20187;-80
2021/12/01 09:35:17;;;;;;;2.30;2.20;;;10.40;99.90;;;;;;6217960;23;20191;-79
2021/12/01 09:37:44;;;;;;;2.40;2.30;;;10.60;99.90;;;;;;6216200;23;20230;-79
2021/12/01 09:40:14;;;;;;;2.13;2.03;;;10.60;99.90;;;;;;6216377;23;20688;-79
2021/12/01 09:42:42;;;;;;;2.37;2.27;;;10.70;99.90;;;;;;6216316;23;20669;-79
2021/12/01 09:45:10;;;;;;;2.30;2.20;;;10.90;99.90;;;;;;6218059;23;20198;-79
2021/12/01 09:47:39;;;;;;;2.47;2.30;;;11.00;99.90;;;;;;6191636;23;20517;-80
2021/12/01 09:50:07;;;;;;;2.10;2.10;;;11.00;99.90;;;;;;6191595;23;20188;-80
2021/12/01 09:52:35;;;;;;;2.47;2.37;;;11.00;99.90;;;;;;6218176;23;20187;-79
2021/12/01 09:55:02;;;;;;;2.40;2.20;;;11.00;99.90;;;;;;6191227;23;20633;-79
2021/12/01 09:57:29;;;;;;;2.30;2.10;;;10.90;99.90;;;;;;6218825;23;20172;-80
2021/12/01 09:59:55;;;;;;;2.30;2.20;;;10.90;99.90;;;;;;6191419;23;20173;-79
2021/12/01 10:02:25;;;;;;;2.40;2.20;;;10.80;99.90;;;;;;6217883;23;20736;-80
2021/12/01 10:04:53;;;;;;;2.30;2.20;;;10.80;99.90;;;;;;6218320;23;20168;-80
2021/12/01 10:07:22;;;;;;;2.20;2.10;;;10.90;99.90;;;;;;6218163;23;20230;-79
2021/12/01 10:09:52;;;;;;;2.30;2.20;;;11.00;99.90;;;;;;6219914;23;20183;-79
2021/12/01 10:12:19;;;;;;;2.30;2.20;;;11.00;99.90;;;;;;6193132;23;20217;-80
2021/12/01 10:14:47;;;;;;;2.30;2.20;;;11.20;99.90;;;;;;6220143;23;20169;-79
2021/12/01 10:17:15;;;;;;;2.20;2.10;;;11.30;99.90;;;;;;6219064;23;20174;-78
2021/12/01 10:19:42;;;;;;;2.50;2.40;;;11.30;99.90;;;;;;6193679;23;20199;-80
2021/12/01 10:22:11;;;;;;;2.20;2.10;;;11.30;99.90;;;;;;6219768;23;20164;-79
2021/12/01 10:24:40;;;;;;;2.37;2.27;;;11.40;99.90;;;;;;6219388;23;20637;-79
2021/12/01 10:27:11;;;;;;;2.20;2.10;;;11.40;99.90;;;;;;6220498;23;20172;-79
2021/12/01 10:29:43;;;;;;;2.30;2.20;;;11.40;99.90;;;;;;6220123;23;20235;-80
2021/12/01 10:32:16;;;;;;;2.03;2.00;;;11.30;99.90;;;;;;6220394;23;20192;-80
2021/12/01 10:34:46;;;;;;;2.60;2.40;;;11.30;99.90;;;;;;6220576;23;20161;-80
2021/12/01 10:37:18;;;;;;;2.43;2.27;;;11.30;99.90;;;;;;6192838;23;20191;-80
2021/12/01 10:39:48;;;;;;;2.27;2.17;;;11.30;99.90;;;;;;6193566;23;20210;-79
2021/12/01 10:42:17;;;;;;;2.30;2.20;;;11.20;99.90;;;;;;6220238;23;20188;-80
2021/12/01 10:44:59;;;;;;;2.30;2.20;;;11.30;99.90;;;;;;6220241;23;20172;-79
2021/12/01 10:47:36;;;;;;;2.40;2.30;;;11.20;99.90;;;;;;6193072;23;20179;-79
2021/12/01 10:50:04;;;;;;;2.50;2.40;;;11.20;99.90;;;;;;6193332;23;20650;-78
2021/12/01 10:52:35;;;;;;;2.40;2.30;;;11.20;99.90;;;;;;6219803;23;20183;-79
2021/12/01 10:55:08;;;;;;;2.40;2.30;;;11.10;99.90;;;;;;6219732;23;20171;-78
2021/12/01 10:57:39;;;;;;;2.60;2.47;;;11.00;99.90;;;;;;6220145;23;20574;-80
2021/12/01 11:00:17;;;;;;;2.30;2.20;;;10.90;99.90;;;;;;6220035;23;20539;-79
2021/12/01 11:02:44;;;;;;;2.40;2.30;;;10.80;99.90;;;;;;6219512;23;20187;-80
2021/12/01 11:05:10;;;;;;;2.63;2.43;;;10.70;99.90;;;;;;6220063;23;20171;-80
2021/12/01 11:07:39;;;;;;;2.53;2.43;;;10.60;99.90;;;;;;6219655;23;20579;-80
2021/12/01 11:10:14;;;;;;;2.50;2.40;;;10.50;99.90;;;;;;6219007;23;20245;-79
2021/12/01 11:12:42;;;;;;;2.50;2.40;;;10.40;99.90;;;;;;6219138;23;20194;-79
2021/12/01 11:15:20;;;;;;;2.30;2.20;;;10.40;99.90;;;;;;6217954;23;20172;-79
2021/12/01 11:17:47;;;;;;;2.40;2.30;;;10.50;99.90;;;;;;6218896;23;20732;-79
2021/12/01 11:20:36;;;;;;;2.40;2.27;;;10.50;99.90;;;;;;6192895;23;20167;-79
2021/12/01 11:23:23;;;;;;;2.40;2.30;;;10.70;99.90;;;;;;6217527;23;20302;-79
2021/12/01 11:25:53;;;;;;;2.23;2.13;;;10.80;99.90;;;;;;6218193;23;20167;-80
2021/12/01 11:28:22;;;;;;;2.40;2.30;;;10.80;99.90;;;;;;6219406;23;20168;-80
2021/12/01 11:30:51;;;;;;;2.33;2.23;;;10.80;99.90;;;;;;6219823;23;20167;-80
2021/12/01 11:33:20;;;;;;;2.30;2.20;;;10.80;99.90;;;;;;6219334;23;20187;-80
2021/12/01 11:35:50;;;;;;;2.30;2.20;;;10.80;99.90;;;;;;6218286;23;20222;-78
2021/12/01 11:38:19;;;;;;;2.40;2.30;;;10.90;99.90;;;;;;6218901;23;20168;-79
2021/12/01 11:40:49;;;;;;;2.30;2.20;;;10.90;99.90;;;;;;6192292;23;20167;-79
2021/12/01 11:43:18;;;;;;;2.20;2.10;;;10.80;99.90;;;;;;6218974;23;20241;-79
2021/12/01 11:45:46;;;;;;;2.40;2.30;;;10.90;99.90;;;;;;6219076;23;20225;-79
2021/12/01 11:48:15;;;;;;;2.10;2.00;;;10.90;99.90;;;;;;6219024;23;20171;-79
2021/12/01 11:50:48;;;;;;;2.67;2.50;;;11.00;99.90;;;;;;6219192;23;20187;-79
2021/12/01 11:53:22;;;;;;;2.50;2.30;;;11.00;99.90;;;;;;6219371;23;20190;-79
2021/12/01 11:55:58;;;;;;;2.90;2.30;;;11.00;99.90;;;;;;6218903;23;20257;-80
2021/12/01 11:59:03;;;;;;;2.40;2.30;;;10.90;99.90;;;;;;6218330;23;20213;-79
2021/12/01 12:01:48;;;;;;;2.30;2.20;;;10.80;99.90;;;;;;6219485;23;20163;-80
2021/12/01 12:04:27;;;;;;;2.40;2.30;;;10.80;99.90;;;;;;6192576;23;20172;-79
2021/12/01 12:07:00;;;;;;;2.50;2.30;;;10.80;99.90;;;;;;6216777;23;20231;-79
2021/12/01 12:09:28;;;;;;;2.47;2.37;;;10.70;99.90;;;;;;6192016;23;20661;-80
2021/12/01 12:12:09;;;;;;;2.43;2.23;;;10.70;99.90;;;;;;6219096;23;20195;-79
2021/12/01 12:14:38;;;;;;;2.40;2.30;;;10.70;99.90;;;;;;6218890;23;20206;-79
2021/12/01 12:17:08;;;;;;;2.50;2.33;;;10.80;99.90;;;;;;6217134;23;20176;-79
2021/12/01 12:19:56;;;;;;;2.50;2.40;;;11.00;99.90;;;;;;6192516;23;20176;-79
2021/12/01 12:22:29;;;;;;;2.30;2.17;;;11.00;99.90;;;;;;6217699;23;20199;-79
2021/12/01 12:24:56;;;;;;;2.53;2.33;;;11.10;99.90;;;;;;6219997;23;20226;-79
2021/12/01 12:27:42;;;;;;;2.50;2.40;;;11.10;99.90;;;;;;6218772;23;20163;-79
2021/12/01 12:30:13;;;;;;;2.30;2.20;;;11.20;99.90;;;;;;6218809;23;20506;-79
2021/12/01 12:32:43;;;;;;;2.57;2.43;;;11.20;99.90;;;;;;6217182;23;20567;-79
2021/12/01 12:35:14;;;;;;;2.57;2.37;;;11.10;99.90;;;;;;6216668;23;20701;-78
2021/12/01 12:37:42;;;;;;;2.50;2.40;;;11.00;99.90;;;;;;6218259;23;20163;-80
2021/12/01 12:40:13;;;;;;;2.30;2.20;;;11.00;99.90;;;;;;6191993;23;20227;-79
2021/12/01 12:43:10;;;;;;;2.37;2.27;;;11.00;99.90;;;;;;6217855;23;20188;-79
2021/12/01 12:45:38;;;;;;;2.30;2.20;;;11.10;99.90;;;;;;6192227;23;20214;-80
2021/12/01 12:48:23;;;;;;;2.40;2.30;;;11.20;99.90;;;;;;6219141;23;20290;-79
2021/12/01 12:51:16;;;;;;;2.70;2.50;;;11.20;99.90;;;;;;6192311;23;20199;-80
2021/12/01 12:54:18;;;;;;;2.30;2.20;;;11.40;99.90;;;;;;6191270;23;20197;-79